Time;durP1;ratioP1;P1;durP2;ratioP2;P2;SDS_P1;SDS_P2;PMS_P1;PMS_P2;Temp;Humidity;BMP_temperature;BMP_pressure;BME280_temperature;BME280_humidity;BME280_pressure;Samples;Min_cycle;Max_cycle;Signal;HPM_P1;HPM_P2
2023/08/01 04:05:42;;;;;;;1.33;1.20;;;19.10;99.90;;;;;;5460679;23;20532;-60
2023/08/01 04:08:08;;;;;;;2.43;1.27;;;19.10;99.90;;;;;;4978013;28;20933;-59
2023/08/01 04:10:33;;;;;;;1.97;1.63;;;19.10;99.90;;;;;;4978150;28;20386;-59
2023/08/01 04:12:59;;;;;;;1.27;1.17;;;19.20;99.90;;;;;;4978265;28;20183;-61
2023/08/01 04:15:25;;;;;;;1.40;1.30;;;19.20;99.90;;;;;;4977908;28;20200;-61
2023/08/01 04:17:50;;;;;;;1.57;1.47;;;19.20;99.90;;;;;;4978107;28;20683;-61
2023/08/01 04:20:16;;;;;;;1.07;0.97;;;19.20;99.90;;;;;;4977706;28;20200;-59
2023/08/01 04:22:41;;;;;;;1.60;1.50;;;19.20;99.90;;;;;;4977942;28;20582;-61
2023/08/01 04:25:07;;;;;;;1.27;1.17;;;19.20;99.90;;;;;;4977154;28;20176;-60
2023/08/01 04:27:33;;;;;;;2.00;1.80;;;19.30;99.90;;;;;;4976769;28;20208;-61
2023/08/01 04:29:59;;;;;;;1.40;1.20;;;19.40;99.90;;;;;;4977710;28;20967;-60
2023/08/01 04:32:24;;;;;;;1.37;1.23;;;19.30;99.90;;;;;;4977685;28;20514;-60
2023/08/01 04:34:50;;;;;;;1.33;1.23;;;19.40;99.90;;;;;;4976749;28;20172;-60
2023/08/01 04:37:16;;;;;;;1.00;0.90;;;19.50;99.90;;;;;;4976818;28;20209;-60
2023/08/01 04:39:41;;;;;;;2.20;2.10;;;19.40;99.90;;;;;;4977565;28;20204;-60
2023/08/01 04:42:07;;;;;;;1.20;1.10;;;19.50;99.90;;;;;;4977348;28;20657;-60
2023/08/01 04:44:33;;;;;;;2.23;1.80;;;19.50;99.90;;;;;;4976884;28;20634;-62
2023/08/01 04:46:58;;;;;;;1.10;0.97;;;19.50;99.90;;;;;;4959620;28;20188;-60
2023/08/01 04:49:24;;;;;;;1.60;1.40;;;19.60;99.90;;;;;;4977361;28;20530;-60
2023/08/01 04:51:50;;;;;;;1.13;1.03;;;19.60;99.90;;;;;;4977506;28;20271;-60
2023/08/01 04:54:16;;;;;;;2.00;1.47;;;19.60;99.90;;;;;;4977295;28;20557;-60
2023/08/01 04:56:41;;;;;;;1.57;1.47;;;19.70;99.90;;;;;;4977018;28;20530;-59
2023/08/01 04:59:07;;;;;;;1.30;0.90;;;19.70;99.90;;;;;;4977219;28;20204;-59
2023/08/01 05:01:33;;;;;;;1.43;1.33;;;19.70;99.90;;;;;;4977013;28;20516;-58
2023/08/01 05:03:58;;;;;;;1.43;1.33;;;19.70;99.90;;;;;;4976837;28;20173;-58
2023/08/01 05:06:24;;;;;;;1.00;1.00;;;19.70;99.90;;;;;;4977149;28;20558;-59
2023/08/01 05:08:49;;;;;;;2.07;1.97;;;19.60;99.90;;;;;;4976684;28;20196;-59
2023/08/01 05:11:15;;;;;;;1.83;1.50;;;19.60;99.90;;;;;;4975973;28;20179;-59
2023/08/01 05:13:41;;;;;;;1.23;1.13;;;19.60;99.90;;;;;;4976665;28;20230;-60
2023/08/01 05:16:06;;;;;;;1.00;0.90;;;19.60;99.90;;;;;;4976719;28;20207;-61
2023/08/01 05:18:32;;;;;;;2.03;1.93;;;19.50;99.90;;;;;;4976507;28;20181;-61
2023/08/01 05:20:57;;;;;;;1.27;1.13;;;19.40;99.90;;;;;;4959500;28;20176;-60
2023/08/01 05:23:23;;;;;;;2.07;1.50;;;19.40;99.90;;;;;;4976911;28;20492;-60
2023/08/01 05:25:48;;;;;;;3.57;1.33;;;19.40;99.90;;;;;;4976742;28;20199;-61
2023/08/01 05:28:15;;;;;;;1.10;1.00;;;19.30;99.90;;;;;;4976305;28;20189;-60
2023/08/01 05:30:40;;;;;;;0.93;0.90;;;19.30;99.90;;;;;;4976787;28;20223;-60
2023/08/01 05:33:06;;;;;;;1.47;1.37;;;19.20;99.90;;;;;;4976525;28;20404;-61
2023/08/01 05:35:32;;;;;;;1.13;0.87;;;19.20;99.90;;;;;;4976083;28;20200;-60
2023/08/01 05:37:58;;;;;;;0.70;0.70;;;19.20;99.90;;;;;;4976462;28;20186;-60
2023/08/01 05:40:23;;;;;;;1.40;1.30;;;19.20;99.90;;;;;;4976467;28;20208;-60
2023/08/01 05:42:49;;;;;;;1.30;1.20;;;19.20;99.90;;;;;;4976631;28;20412;-60
2023/08/01 05:45:14;;;;;;;1.23;1.13;;;19.20;99.90;;;;;;4975796;28;20184;-60
2023/08/01 05:47:40;;;;;;;1.13;1.03;;;19.30;99.90;;;;;;4976177;28;20176;-60
2023/08/01 05:50:07;;;;;;;1.50;0.93;;;19.30;99.90;;;;;;4976040;28;20219;-60
2023/08/01 05:52:33;;;;;;;1.77;1.67;;;19.30;99.90;;;;;;4976375;28;20402;-61
2023/08/01 05:54:59;;;;;;;1.53;1.03;;;19.30;99.90;;;;;;4975904;28;20557;-61
2023/08/01 05:57:25;;;;;;;1.67;1.57;;;19.30;99.90;;;;;;4976185;28;20506;-61
2023/08/01 05:59:51;;;;;;;2.83;2.63;;;19.30;99.90;;;;;;4975820;28;20208;-60
2023/08/01 06:02:16;;;;;;;1.40;1.13;;;19.30;99.90;;;;;;4975946;28;20401;-60
2023/08/01 06:04:42;;;;;;;2.40;1.27;;;19.40;99.90;;;;;;4975693;28;20255;-62
2023/08/01 06:07:07;;;;;;;1.80;1.40;;;19.40;99.90;;;;;;4975749;28;20646;-60
2023/08/01 06:09:33;;;;;;;1.20;1.10;;;19.40;99.90;;;;;;4975706;28;20538;-61
2023/08/01 06:11:59;;;;;;;1.90;1.30;;;19.50;99.90;;;;;;4975782;28;20180;-61
2023/08/01 06:14:25;;;;;;;1.00;0.90;;;19.50;99.90;;;;;;4975465;28;20176;-60
2023/08/01 06:16:50;;;;;;;1.83;1.47;;;19.50;99.90;;;;;;4975299;28;20291;-60
2023/08/01 06:19:16;;;;;;;1.50;1.40;;;19.50;99.90;;;;;;4975637;28;20666;-60
2023/08/01 06:21:41;;;;;;;2.77;1.40;;;19.50;99.90;;;;;;4975441;28;20725;-60
2023/08/01 06:24:08;;;;;;;1.40;1.30;;;19.60;99.90;;;;;;4957928;28;20187;-59
2023/08/01 06:26:34;;;;;;;3.20;2.33;;;19.50;99.90;;;;;;4975415;28;20192;-60
2023/08/01 06:28:59;;;;;;;2.07;1.73;;;19.50;99.90;;;;;;4975220;28;20406;-60
2023/08/01 06:31:25;;;;;;;2.53;1.70;;;19.50;99.90;;;;;;4975689;28;20172;-60
2023/08/01 06:33:51;;;;;;;1.60;1.47;;;19.60;99.90;;;;;;4975114;28;20211;-60
2023/08/01 06:36:17;;;;;;;1.40;1.30;;;19.60;99.90;;;;;;4957993;28;20610;-59
2023/08/01 06:38:43;;;;;;;1.87;1.50;;;19.60;99.90;;;;;;4975071;28;20643;-60
2023/08/01 06:41:09;;;;;;;1.97;1.80;;;19.60;99.90;;;;;;4975328;28;20495;-60
2023/08/01 06:43:37;;;;;;;3.17;1.60;;;19.50;99.90;;;;;;4975018;28;20959;-60
2023/08/01 06:46:03;;;;;;;2.43;1.77;;;19.40;99.90;;;;;;4975130;28;20192;-60
2023/08/01 06:48:29;;;;;;;2.57;1.53;;;19.10;99.90;;;;;;4975450;28;20435;-60
2023/08/01 06:50:54;;;;;;;3.07;2.10;;;18.90;99.90;;;;;;4975143;28;20788;-60
2023/08/01 06:53:21;;;;;;;2.37;1.87;;;18.70;99.90;;;;;;4975266;28;20531;-62
2023/08/01 06:55:46;;;;;;;1.70;1.60;;;18.50;99.90;;;;;;4974956;28;20276;-60
2023/08/01 06:58:12;;;;;;;2.23;2.03;;;18.30;99.90;;;;;;4974990;28;20424;-60
2023/08/01 07:00:38;;;;;;;2.73;1.87;;;18.20;99.90;;;;;;4975085;28;20287;-60
2023/08/01 07:03:04;;;;;;;1.50;1.40;;;18.00;99.90;;;;;;4975124;28;20291;-60
2023/08/01 07:05:30;;;;;;;3.33;2.20;;;17.90;99.90;;;;;;4974559;28;20432;-60
2023/08/01 07:07:57;;;;;;;5.00;2.07;;;17.80;99.90;;;;;;4974381;28;20284;-60
2023/08/01 07:10:23;;;;;;;5.77;2.30;;;17.70;99.90;;;;;;4974160;28;20178;-60
2023/08/01 07:12:49;;;;;;;2.60;2.23;;;17.70;99.90;;;;;;4973746;28;20476;-60
2023/08/01 07:15:14;;;;;;;5.27;3.03;;;17.70;99.90;;;;;;4974180;28;20220;-60
2023/08/01 07:17:40;;;;;;;4.40;3.40;;;17.70;99.90;;;;;;4974796;28;20556;-61
2023/08/01 07:20:06;;;;;;;4.70;3.20;;;17.70;99.90;;;;;;4975006;28;20232;-60
2023/08/01 07:22:31;;;;;;;2.87;2.40;;;17.70;99.90;;;;;;4974949;28;20173;-60
2023/08/01 07:24:57;;;;;;;2.17;2.00;;;17.70;99.90;;;;;;4973957;28;20206;-60
2023/08/01 07:27:22;;;;;;;4.00;2.73;;;17.70;99.90;;;;;;4974773;28;20180;-60
2023/08/01 07:29:48;;;;;;;5.87;5.17;;;17.70;99.90;;;;;;4974824;28;20186;-60
2023/08/01 07:32:14;;;;;;;4.77;3.73;;;17.70;99.90;;;;;;4974582;28;20630;-61
2023/08/01 07:34:40;;;;;;;6.73;3.90;;;17.70;99.90;;;;;;4973215;28;20317;-60
2023/08/01 07:37:06;;;;;;;5.03;2.80;;;17.70;99.90;;;;;;4974550;28;20487;-60
2023/08/01 07:39:34;;;;;;;3.50;2.73;;;17.70;99.90;;;;;;4974449;28;20671;-60
2023/08/01 07:41:59;;;;;;;3.93;3.50;;;17.70;99.90;;;;;;4974618;28;20178;-60
2023/08/01 07:44:25;;;;;;;6.07;3.83;;;17.50;99.90;;;;;;4974109;28;20392;-60
2023/08/01 07:46:50;;;;;;;5.13;2.60;;;17.50;99.90;;;;;;4974408;28;20649;-61
2023/08/01 07:49:16;;;;;;;4.03;2.83;;;17.40;99.90;;;;;;4974032;28;20193;-60
2023/08/01 07:51:41;;;;;;;2.53;2.33;;;17.30;99.90;;;;;;4957138;28;20532;-60
2023/08/01 07:54:07;;;;;;;3.20;2.77;;;17.20;99.90;;;;;;4973977;28;20221;-60
2023/08/01 07:56:32;;;;;;;2.30;2.10;;;17.20;99.90;;;;;;4974367;28;20206;-61
2023/08/01 07:58:58;;;;;;;2.50;2.00;;;17.20;99.90;;;;;;4974005;28;20214;-60
2023/08/01 08:01:23;;;;;;;1.60;1.50;;;17.20;99.90;;;;;;4974410;28;20543;-60
2023/08/01 08:03:49;;;;;;;2.50;1.60;;;17.10;99.90;;;;;;4974072;28;20201;-60
2023/08/01 08:06:15;;;;;;;1.53;1.37;;;17.10;99.90;;;;;;4974247;28;20584;-61
2023/08/01 08:08:40;;;;;;;1.90;1.50;;;17.00;99.90;;;;;;4956564;28;20193;-60
2023/08/01 08:11:06;;;;;;;1.33;1.23;;;17.00;99.90;;;;;;4973861;28;20187;-61
2023/08/01 08:13:32;;;;;;;2.60;1.70;;;17.00;99.90;;;;;;4973846;28;20170;-61
2023/08/01 08:15:57;;;;;;;2.17;1.50;;;17.10;99.90;;;;;;4974311;28;20284;-60
2023/08/01 08:18:23;;;;;;;1.27;1.00;;;17.20;99.90;;;;;;4974541;28;20225;-59
2023/08/01 08:20:49;;;;;;;2.77;2.00;;;17.20;99.90;;;;;;4973999;28;20216;-59
2023/08/01 08:23:15;;;;;;;2.70;2.50;;;17.30;99.90;;;;;;4974344;28;20422;-59
2023/08/01 08:25:46;;;;;;;2.40;1.73;;;17.40;99.90;;;;;;4973786;28;20206;-61
2023/08/01 08:28:12;;;;;;;1.60;1.50;;;17.40;99.90;;;;;;4973824;28;20185;-63
2023/08/01 08:30:38;;;;;;;1.40;1.30;;;17.40;99.90;;;;;;4974251;28;20519;-60
2023/08/01 08:33:06;;;;;;;1.63;1.53;;;17.30;99.90;;;;;;4956755;28;20389;-60
2023/08/01 08:35:33;;;;;;;1.30;1.20;;;17.40;99.90;;;;;;4973726;28;20281;-61
2023/08/01 08:38:01;;;;;;;1.73;1.63;;;17.40;99.90;;;;;;4973778;28;20854;-60
2023/08/01 08:40:27;;;;;;;2.33;1.80;;;17.40;99.90;;;;;;4974019;28;20921;-61
2023/08/01 08:42:54;;;;;;;1.57;1.13;;;17.50;99.90;;;;;;4974152;28;20380;-61
2023/08/01 08:45:21;;;;;;;1.60;1.50;;;17.50;99.90;;;;;;4974417;28;20456;-61
2023/08/01 08:47:55;;;;;;;1.60;1.37;;;17.60;99.90;;;;;;4977639;28;20451;-61
2023/08/01 08:50:21;;;;;;;1.33;1.23;;;17.60;99.90;;;;;;4977373;28;20755;-60
2023/08/01 08:52:46;;;;;;;1.80;1.70;;;17.70;99.90;;;;;;4977437;28;20468;-59
2023/08/01 08:55:12;;;;;;;1.90;1.47;;;17.90;99.90;;;;;;4976929;28;20717;-61
2023/08/01 08:57:39;;;;;;;1.20;1.07;;;18.10;99.90;;;;;;4977373;28;20634;-62
2023/08/01 09:00:06;;;;;;;1.43;1.33;;;18.40;99.90;;;;;;4976960;28;20200;-61
2023/08/01 09:02:33;;;;;;;2.77;2.30;;;18.70;99.90;;;;;;4977115;28;20402;-61
2023/08/01 09:04:59;;;;;;;1.10;1.00;;;19.00;99.90;;;;;;4976702;28;20416;-60
2023/08/01 09:07:29;;;;;;;1.53;1.20;;;19.10;99.90;;;;;;4976828;28;20402;-59
2023/08/01 09:09:55;;;;;;;1.37;1.27;;;19.30;99.90;;;;;;4959590;28;20427;-61
2023/08/01 09:12:21;;;;;;;1.60;1.50;;;19.30;99.90;;;;;;4977374;28;20419;-61
2023/08/01 09:14:50;;;;;;;1.17;1.10;;;19.40;99.90;;;;;;4976690;28;20183;-61
2023/08/01 09:17:18;;;;;;;2.70;1.53;;;19.40;99.90;;;;;;4976752;28;20447;-60
2023/08/01 09:19:43;;;;;;;1.53;1.50;;;19.40;99.90;;;;;;4976659;28;20994;-61
2023/08/01 09:22:13;;;;;;;1.03;0.97;;;19.40;99.90;;;;;;4976967;28;20485;-61
2023/08/01 09:24:39;;;;;;;2.73;1.53;;;19.40;99.90;;;;;;4976363;28;20168;-59
2023/08/01 09:27:05;;;;;;;1.30;1.17;;;19.40;99.90;;;;;;4976795;28;20566;-61
2023/08/01 09:29:32;;;;;;;1.87;1.30;;;19.30;99.90;;;;;;4976545;28;20180;-60
2023/08/01 09:31:58;;;;;;;0.80;0.80;;;19.30;99.90;;;;;;4976808;28;20506;-60
2023/08/01 09:34:27;;;;;;;1.13;1.03;;;19.20;99.90;;;;;;4976266;28;20574;-62
2023/08/01 09:37:00;;;;;;;1.37;1.30;;;19.20;99.90;;;;;;4976676;28;20259;-61
2023/08/01 09:39:26;;;;;;;2.50;0.93;;;19.30;99.90;;;;;;4976097;28;20466;-61
2023/08/01 09:42:00;;;;;;;1.20;1.10;;;19.30;99.90;;;;;;4976606;28;20404;-60
2023/08/01 09:44:27;;;;;;;1.07;0.97;;;19.40;99.90;;;;;;4958856;28;20804;-61
2023/08/01 09:47:03;;;;;;;0.73;0.73;;;19.40;99.90;;;;;;4976467;28;20406;-60
2023/08/01 09:49:31;;;;;;;1.10;1.00;;;19.40;99.90;;;;;;4975924;28;20419;-61
2023/08/01 09:51:57;;;;;;;1.00;0.90;;;19.40;99.90;;;;;;4976271;28;20382;-60
2023/08/01 09:54:23;;;;;;;0.77;0.77;;;19.50;99.90;;;;;;4975698;28;20465;-61
2023/08/01 09:56:51;;;;;;;4.93;0.97;;;19.60;99.90;;;;;;4975363;28;20409;-60
2023/08/01 09:59:22;;;;;;;0.40;0.40;;;19.80;99.90;;;;;;4976170;28;20434;-61
2023/08/01 10:01:50;;;;;;;1.63;1.13;;;19.90;99.90;;;;;;4976354;28;20894;-61
2023/08/01 10:04:23;;;;;;;1.23;0.80;;;20.10;99.90;;;;;;4975495;28;20912;-61
2023/08/01 10:06:57;;;;;;;0.87;0.80;;;20.30;99.90;;;;;;4976077;28;20443;-60
2023/08/01 10:09:23;;;;;;;0.70;0.50;;;20.50;99.90;;;;;;4976085;28;20435;-60
2023/08/01 10:11:51;;;;;;;0.80;0.80;;;20.70;99.90;;;;;;4975827;28;20467;-63
2023/08/01 10:14:19;;;;;;;0.80;0.80;;;20.90;99.90;;;;;;4975476;28;20416;-61
2023/08/01 10:16:45;;;;;;;0.93;0.60;;;21.00;99.90;;;;;;4975509;28;20413;-61
2023/08/01 10:19:13;;;;;;;0.93;0.90;;;21.00;99.90;;;;;;4975981;28;20451;-61
2023/08/01 10:21:41;;;;;;;0.43;0.40;;;21.10;99.90;;;;;;4975847;28;20397;-60
2023/08/01 10:24:07;;;;;;;0.40;0.40;;;21.10;99.90;;;;;;4941960;28;20733;-62
2023/08/01 10:26:33;;;;;;;0.67;0.67;;;21.10;99.90;;;;;;4975544;28;20427;-61
2023/08/01 10:29:00;;;;;;;0.40;0.40;;;21.10;99.90;;;;;;4975984;28;20473;-60
2023/08/01 10:31:25;;;;;;;0.40;0.40;;;21.00;99.90;;;;;;4976223;28;20523;-60
2023/08/01 10:33:52;;;;;;;0.60;0.60;;;21.00;99.90;;;;;;4957580;28;20422;-60
2023/08/01 10:36:23;;;;;;;0.40;0.40;;;20.90;99.90;;;;;;4958095;28;20418;-60
2023/08/01 10:38:52;;;;;;;1.53;1.43;;;20.80;99.90;;;;;;4975387;28;20423;-60
2023/08/01 10:41:26;;;;;;;0.50;0.40;;;20.80;99.90;;;;;;4974946;28;20390;-61
2023/08/01 10:43:51;;;;;;;0.40;0.37;;;20.80;99.90;;;;;;4957777;28;20392;-60
2023/08/01 10:46:18;;;;;;;0.97;0.77;;;20.80;99.90;;;;;;4975164;28;21010;-61
2023/08/01 10:48:51;;;;;;;0.50;0.40;;;20.80;99.90;;;;;;4975182;28;20171;-60
2023/08/01 10:51:16;;;;;;;0.60;0.43;;;20.90;99.90;;;;;;4974937;28;20420;-60
2023/08/01 10:53:42;;;;;;;0.50;0.47;;;20.90;99.90;;;;;;4974906;28;20758;-60
2023/08/01 10:56:08;;;;;;;0.53;0.53;;;20.90;99.90;;;;;;4975155;28;20196;-60
2023/08/01 10:58:34;;;;;;;0.40;0.40;;;20.80;99.90;;;;;;4975182;28;20174;-60
2023/08/01 11:01:00;;;;;;;0.40;0.40;;;20.80;99.90;;;;;;4957485;28;20862;-60
2023/08/01 11:03:39;;;;;;;0.30;0.30;;;20.80;99.90;;;;;;4974666;28;20466;-60
2023/08/01 11:06:05;;;;;;;0.60;0.60;;;21.10;99.90;;;;;;4974836;28;20220;-61
2023/08/01 11:08:39;;;;;;;0.70;0.60;;;21.80;99.90;;;;;;4957280;28;20482;-61
2023/08/01 11:11:10;;;;;;;0.43;0.43;;;22.60;99.90;;;;;;4974565;28;20796;-61
2023/08/01 11:13:36;;;;;;;1.20;1.20;;;23.30;99.90;;;;;;4974690;28;20404;-60
2023/08/01 11:16:03;;;;;;;0.60;0.50;;;24.00;99.90;;;;;;4974644;28;20431;-61
2023/08/01 11:18:30;;;;;;;0.60;0.40;;;24.60;99.90;;;;;;4974874;28;20180;-61
2023/08/01 11:20:56;;;;;;;0.43;0.40;;;24.80;99.90;;;;;;4974527;28;20490;-59
2023/08/01 11:23:28;;;;;;;0.77;0.77;;;24.80;99.90;;;;;;4974449;28;20417;-61
2023/08/01 11:25:54;;;;;;;0.50;0.50;;;24.70;99.90;;;;;;4974493;28;20205;-61
2023/08/01 11:28:22;;;;;;;0.40;0.40;;;24.60;99.90;;;;;;4974744;28;20429;-60
2023/08/01 11:30:48;;;;;;;0.50;0.50;;;24.40;99.90;;;;;;4974486;28;20428;-61
2023/08/01 11:33:21;;;;;;;0.50;0.50;;;24.30;99.90;;;;;;4975795;28;20399;-61
2023/08/01 11:35:59;;;;;;;0.50;0.50;;;24.30;99.90;;;;;;4979141;28;20200;-61
2023/08/01 11:38:26;;;;;;;0.50;0.50;;;24.30;99.90;;;;;;4977313;28;20389;-61
2023/08/01 11:40:52;;;;;;;0.30;0.30;;;24.30;99.90;;;;;;4974184;28;20442;-61
2023/08/01 11:43:18;;;;;;;0.50;0.50;;;24.40;99.90;;;;;;4976918;28;20426;-61
2023/08/01 11:45:51;;;;;;;0.60;0.60;;;24.40;99.90;;;;;;4977115;28;20756;-63
2023/08/01 11:48:18;;;;;;;0.40;0.40;;;24.40;99.90;;;;;;4978636;28;20172;-61
2023/08/01 11:50:44;;;;;;;0.40;0.40;;;24.30;99.90;;;;;;4975976;28;20433;-61
2023/08/01 11:53:21;;;;;;;0.40;0.40;;;24.10;99.90;;;;;;4974930;28;20459;-60
2023/08/01 11:55:47;;;;;;;0.50;0.50;;;23.90;99.90;;;;;;4974159;28;20242;-60
2023/08/01 11:58:14;;;;;;;0.93;0.60;;;23.70;99.90;;;;;;4975585;28;20927;-60
2023/08/01 12:00:39;;;;;;;1.10;0.63;;;23.60;99.90;;;;;;4960359;28;20445;-60
2023/08/01 12:03:13;;;;;;;0.60;0.60;;;23.40;99.90;;;;;;4976752;28;20427;-60
2023/08/01 12:05:41;;;;;;;0.70;0.70;;;23.40;99.90;;;;;;4974117;28;20745;-61
2023/08/01 12:08:14;;;;;;;1.23;0.60;;;23.50;99.90;;;;;;4974002;28;20991;-62
2023/08/01 12:10:42;;;;;;;0.50;0.50;;;23.60;99.90;;;;;;4974274;28;20382;-60
2023/08/01 12:13:22;;;;;;;0.50;0.47;;;23.50;99.90;;;;;;4974416;28;20419;-60
2023/08/01 12:15:50;;;;;;;0.50;0.47;;;23.30;99.70;;;;;;4974094;28;20402;-60
2023/08/01 12:18:25;;;;;;;1.60;0.70;;;23.20;99.90;;;;;;4974244;28;20439;-62
2023/08/01 12:20:51;;;;;;;0.70;0.70;;;23.20;99.90;;;;;;4975880;28;20805;-61
2023/08/01 12:23:17;;;;;;;1.00;1.00;;;23.30;99.90;;;;;;4960190;28;20980;-61
2023/08/01 12:25:43;;;;;;;0.80;0.70;;;23.40;99.90;;;;;;4977389;28;20463;-61
2023/08/01 12:28:08;;;;;;;0.50;0.50;;;23.50;99.90;;;;;;4977545;28;20598;-60
2023/08/01 12:30:34;;;;;;;1.40;0.90;;;23.60;99.90;;;;;;4977710;28;20184;-61
2023/08/01 12:33:00;;;;;;;0.40;0.40;;;23.70;99.30;;;;;;4977408;28;20184;-59
2023/08/01 12:35:27;;;;;;;0.40;0.40;;;23.60;98.00;;;;;;4977116;28;20547;-61
2023/08/01 12:37:53;;;;;;;0.77;0.70;;;23.60;97.70;;;;;;4960270;28;20419;-62
2023/08/01 12:40:19;;;;;;;0.60;0.60;;;23.60;98.10;;;;;;4977294;28;20477;-60
2023/08/01 12:42:46;;;;;;;0.53;0.53;;;23.60;98.30;;;;;;4977879;28;20382;-60
2023/08/01 12:45:12;;;;;;;0.60;0.43;;;23.70;97.50;;;;;;4959323;28;20930;-60
2023/08/01 12:47:38;;;;;;;0.50;0.50;;;23.80;97.40;;;;;;4977540;28;20370;-61
2023/08/01 12:50:04;;;;;;;0.60;0.60;;;23.90;97.90;;;;;;4977628;28;20180;-60
2023/08/01 12:52:29;;;;;;;0.60;0.60;;;24.00;96.70;;;;;;4977452;28;20180;-60
2023/08/01 12:54:55;;;;;;;0.90;0.77;;;24.10;96.40;;;;;;4976879;28;20412;-61
2023/08/01 12:57:21;;;;;;;0.80;0.50;;;24.10;96.40;;;;;;4977200;28;20200;-59
2023/08/01 12:59:46;;;;;;;0.60;0.60;;;24.10;96.90;;;;;;4977579;28;20214;-62
2023/08/01 13:02:13;;;;;;;0.50;0.50;;;24.10;96.40;;;;;;4977616;28;20267;-61
2023/08/01 13:04:38;;;;;;;1.00;0.70;;;23.90;96.20;;;;;;4976418;28;20192;-61
2023/08/01 13:07:05;;;;;;;0.47;0.37;;;23.60;96.20;;;;;;4959467;28;20486;-60
2023/08/01 13:09:30;;;;;;;0.70;0.70;;;23.30;95.30;;;;;;4977321;28;20278;-60
2023/08/01 13:11:56;;;;;;;0.67;0.50;;;23.10;96.00;;;;;;4977014;28;20805;-61
2023/08/01 13:14:23;;;;;;;0.80;0.80;;;23.00;96.30;;;;;;4976360;28;20239;-59
2023/08/01 13:16:50;;;;;;;0.50;0.50;;;22.90;97.00;;;;;;4976905;28;20200;-60
2023/08/01 13:19:15;;;;;;;0.80;0.80;;;22.90;96.10;;;;;;4976778;28;20470;-60
2023/08/01 13:21:41;;;;;;;0.90;0.90;;;23.00;96.50;;;;;;4976840;28;20407;-60
2023/08/01 13:24:06;;;;;;;0.90;0.73;;;23.10;96.50;;;;;;4976363;28;20180;-60
2023/08/01 13:26:32;;;;;;;1.33;1.03;;;23.10;97.00;;;;;;4976836;28;20197;-59
2023/08/01 13:28:59;;;;;;;0.53;0.53;;;23.20;97.10;;;;;;4976891;28;20522;-61
2023/08/01 13:31:28;;;;;;;0.63;0.60;;;23.30;96.60;;;;;;4975913;28;20227;-61
2023/08/01 13:33:57;;;;;;;0.33;0.33;;;23.40;96.30;;;;;;4975557;28;20838;-61
2023/08/01 13:36:24;;;;;;;0.50;0.50;;;23.50;96.00;;;;;;4976367;28;20910;-61
2023/08/01 13:38:50;;;;;;;0.70;0.40;;;23.50;96.50;;;;;;4976515;28;20559;-61
2023/08/01 13:41:15;;;;;;;0.70;0.50;;;23.60;96.10;;;;;;4977003;28;20506;-61
2023/08/01 13:43:41;;;;;;;1.00;1.00;;;23.50;96.00;;;;;;4976245;28;20410;-60
2023/08/01 13:46:15;;;;;;;1.10;0.70;;;23.60;95.70;;;;;;4976556;28;20239;-60
2023/08/01 13:48:41;;;;;;;0.53;0.53;;;23.60;95.10;;;;;;4976355;28;20618;-60
2023/08/01 13:51:07;;;;;;;0.50;0.50;;;23.60;94.60;;;;;;4976519;28;20922;-60
2023/08/01 13:53:33;;;;;;;0.60;0.60;;;23.60;94.20;;;;;;4975826;28;20406;-60
2023/08/01 13:55:59;;;;;;;1.20;0.77;;;23.60;94.50;;;;;;4976147;28;20204;-61
2023/08/01 13:58:25;;;;;;;0.60;0.60;;;23.60;94.40;;;;;;4976832;28;20385;-61
2023/08/01 14:00:51;;;;;;;0.80;0.70;;;23.60;94.40;;;;;;4976893;28;20438;-61
2023/08/01 14:03:16;;;;;;;0.40;0.40;;;23.60;95.30;;;;;;4978183;28;20200;-62
2023/08/01 14:05:42;;;;;;;0.83;0.70;;;23.60;95.00;;;;;;4978422;28;20208;-60
2023/08/01 14:08:07;;;;;;;0.63;0.63;;;23.60;94.20;;;;;;4979130;28;20223;-60
2023/08/01 14:10:33;;;;;;;0.70;0.60;;;23.60;95.10;;;;;;4961063;28;20185;-60
2023/08/01 14:12:59;;;;;;;0.50;0.50;;;23.50;94.30;;;;;;4976294;28;20168;-60
2023/08/01 14:15:24;;;;;;;0.73;0.73;;;23.60;94.50;;;;;;4975501;28;20212;-60
2023/08/01 14:17:50;;;;;;;0.57;0.53;;;23.70;94.60;;;;;;4975870;28;20179;-60
2023/08/01 14:20:15;;;;;;;0.60;0.60;;;23.70;94.70;;;;;;4975788;28;20662;-60
2023/08/01 14:22:42;;;;;;;0.53;0.53;;;23.80;94.80;;;;;;4975911;28;20176;-60
2023/08/01 14:25:08;;;;;;;0.60;0.60;;;23.90;95.10;;;;;;4975290;28;20191;-60
2023/08/01 14:27:34;;;;;;;0.50;0.50;;;24.00;94.10;;;;;;4975461;28;20428;-60
2023/08/01 14:30:00;;;;;;;0.70;0.70;;;23.90;94.70;;;;;;4975871;28;20418;-60
2023/08/01 14:32:25;;;;;;;0.50;0.50;;;23.90;94.80;;;;;;4958556;28;20642;-59
2023/08/01 14:34:51;;;;;;;0.50;0.50;;;23.90;95.20;;;;;;4975329;28;20249;-61
2023/08/01 14:37:17;;;;;;;1.10;1.00;;;23.90;95.80;;;;;;4975366;28;20554;-59
2023/08/01 14:39:42;;;;;;;1.53;0.70;;;24.00;94.90;;;;;;4974852;28;20659;-59
2023/08/01 14:42:08;;;;;;;1.37;0.87;;;24.20;95.20;;;;;;4975675;28;20198;-63
2023/08/01 14:44:33;;;;;;;0.50;0.50;;;24.20;94.90;;;;;;4974383;28;20184;-59
2023/08/01 14:46:59;;;;;;;0.87;0.87;;;24.30;94.00;;;;;;4975136;28;20319;-60
2023/08/01 14:49:27;;;;;;;0.70;0.70;;;24.30;93.00;;;;;;4975451;28;20235;-59
2023/08/01 14:51:53;;;;;;;0.77;0.77;;;24.10;93.00;;;;;;4975139;28;20184;-60
2023/08/01 14:54:19;;;;;;;0.50;0.50;;;24.00;93.20;;;;;;4974570;28;20432;-58
2023/08/01 14:56:44;;;;;;;0.77;0.77;;;24.00;93.40;;;;;;4975251;28;20206;-61
2023/08/01 14:59:10;;;;;;;1.90;1.13;;;24.10;93.60;;;;;;4957764;28;20785;-59
2023/08/01 15:01:35;;;;;;;0.93;0.87;;;24.10;92.90;;;;;;4975043;28;20235;-60
2023/08/01 15:04:01;;;;;;;0.80;0.57;;;24.20;91.80;;;;;;4974609;28;20183;-61
2023/08/01 15:06:27;;;;;;;1.73;0.67;;;24.20;91.90;;;;;;4975080;28;20200;-61
2023/08/01 15:08:52;;;;;;;0.93;0.70;;;24.20;92.20;;;;;;4974966;28;20271;-60
2023/08/01 15:11:18;;;;;;;0.40;0.40;;;24.10;91.40;;;;;;4975024;28;20571;-61
2023/08/01 15:13:43;;;;;;;0.50;0.50;;;24.10;91.60;;;;;;4956973;28;20184;-61
2023/08/01 15:16:14;;;;;;;0.80;0.67;;;24.00;91.70;;;;;;4974846;28;20697;-60
2023/08/01 15:18:40;;;;;;;0.53;0.53;;;24.00;92.60;;;;;;4974815;28;20168;-60
2023/08/01 15:21:06;;;;;;;0.70;0.70;;;23.90;92.20;;;;;;4974576;28;20460;-60
2023/08/01 15:23:31;;;;;;;0.70;0.70;;;23.80;92.60;;;;;;4974271;28;20398;-61
2023/08/01 15:25:58;;;;;;;0.60;0.60;;;23.80;92.30;;;;;;4957461;28;20551;-61
2023/08/01 15:28:25;;;;;;;1.90;0.70;;;23.70;92.40;;;;;;4974758;28;20172;-61
2023/08/01 15:31:08;;;;;;;0.90;0.90;;;23.60;92.50;;;;;;4975250;28;20874;-61
2023/08/01 15:33:38;;;;;;;0.70;0.70;;;23.50;92.50;;;;;;4971971;28;20425;-61
2023/08/01 15:36:05;;;;;;;0.70;0.70;;;23.40;92.90;;;;;;4974668;28;20758;-60
2023/08/01 15:38:32;;;;;;;0.60;0.60;;;23.40;93.30;;;;;;4974705;28;20415;-60
2023/08/01 15:40:58;;;;;;;1.10;1.00;;;23.40;93.10;;;;;;4974252;28;20451;-61
2023/08/01 15:43:26;;;;;;;1.07;1.07;;;23.40;93.00;;;;;;4974013;28;20465;-61
2023/08/01 15:45:52;;;;;;;0.80;0.73;;;23.40;93.10;;;;;;4974370;28;20439;-60
2023/08/01 15:48:17;;;;;;;1.13;1.03;;;23.40;93.10;;;;;;4957499;28;20394;-60
2023/08/01 15:50:45;;;;;;;1.27;0.70;;;23.50;93.40;;;;;;4974411;28;20749;-60
2023/08/01 15:53:10;;;;;;;0.80;0.60;;;23.30;93.10;;;;;;4974188;28;20186;-60
2023/08/01 15:55:36;;;;;;;0.93;0.60;;;23.30;93.50;;;;;;4975520;28;20461;-61
2023/08/01 15:58:02;;;;;;;0.93;0.83;;;23.30;93.00;;;;;;4978522;28;20653;-59
2023/08/01 16:00:27;;;;;;;0.70;0.70;;;23.20;92.90;;;;;;4978451;28;20208;-60
2023/08/01 16:02:53;;;;;;;0.80;0.80;;;23.20;93.40;;;;;;4978120;28;20602;-60
2023/08/01 16:05:18;;;;;;;0.77;0.77;;;23.10;93.60;;;;;;4977920;28;20210;-61
2023/08/01 16:07:44;;;;;;;0.67;0.67;;;23.10;93.40;;;;;;4978138;28;20226;-60
2023/08/01 16:10:09;;;;;;;0.50;0.50;;;23.10;93.90;;;;;;4978270;28;20214;-60
2023/08/01 16:12:35;;;;;;;0.90;0.90;;;23.10;93.50;;;;;;4978314;28;20191;-60
2023/08/01 16:15:01;;;;;;;0.70;0.70;;;23.00;93.70;;;;;;4977308;28;20257;-60
2023/08/01 16:17:26;;;;;;;0.63;0.63;;;23.00;94.10;;;;;;4978177;28;20227;-59
2023/08/01 16:19:52;;;;;;;0.50;0.50;;;23.00;94.20;;;;;;4977441;28;20531;-59
2023/08/01 16:22:18;;;;;;;0.80;0.50;;;23.10;93.90;;;;;;4977901;28;20186;-63
2023/08/01 16:24:43;;;;;;;0.70;0.70;;;23.10;93.90;;;;;;4977630;28;20532;-66
2023/08/01 16:27:09;;;;;;;0.50;0.50;;;23.00;93.20;;;;;;4978144;28;20661;-59
2023/08/01 16:29:35;;;;;;;0.80;0.70;;;22.90;93.60;;;;;;4977505;28;20187;-61
2023/08/01 16:32:00;;;;;;;0.80;0.80;;;22.90;93.70;;;;;;4977864;28;20219;-60
2023/08/01 16:34:27;;;;;;;0.70;0.70;;;22.80;93.50;;;;;;4977623;28;20264;-60
2023/08/01 16:36:53;;;;;;;0.63;0.63;;;22.70;93.90;;;;;;4977791;28;20602;-60
2023/08/01 16:39:18;;;;;;;1.10;1.10;;;22.60;94.20;;;;;;4976899;28;20435;-61
2023/08/01 16:41:44;;;;;;;1.17;0.73;;;22.60;94.10;;;;;;4977306;28;20183;-60
2023/08/01 16:44:09;;;;;;;0.90;0.90;;;22.60;94.40;;;;;;4977214;28;20180;-61
2023/08/01 16:46:35;;;;;;;0.70;0.60;;;22.70;94.60;;;;;;4977511;28;20207;-60
2023/08/01 16:49:01;;;;;;;0.50;0.50;;;22.70;94.70;;;;;;4977409;28;20635;-60